Time;durP1;ratioP1;P1;durP2;ratioP2;P2;SDS_P1;SDS_P2;PMS_P1;PMS_P2;Temp;Humidity;BMP_temperature;BMP_pressure;BME280_temperature;BME280_humidity;BME280_pressure;Samples;Min_cycle;Max_cycle;Signal;HPM_P1;HPM_P2
2023/07/20 00:02:16;;;;;;;4.65;3.97;;;29.30;54.10;;;;;;5055726;28;20060;-83
2023/07/20 00:04:42;;;;;;;5.63;3.47;;;29.30;54.10;;;;;;5055650;28;20388;-82
2023/07/20 00:07:08;;;;;;;4.72;3.58;;;29.40;54.00;;;;;;5053894;28;20041;-83
2023/07/20 00:09:34;;;;;;;4.40;3.50;;;29.30;54.00;;;;;;5055093;28;20045;-83
2023/07/20 00:12:00;;;;;;;6.47;3.83;;;29.30;54.00;;;;;;5055411;28;20037;-83
2023/07/20 00:14:26;;;;;;;4.85;3.33;;;29.30;54.10;;;;;;5053951;28;20120;-83
2023/07/20 00:16:55;;;;;;;4.97;3.75;;;29.40;54.10;;;;;;5054721;28;20040;-84
2023/07/20 00:19:26;;;;;;;3.30;2.72;;;29.20;54.10;;;;;;5054599;28;20033;-82
2023/07/20 00:21:53;;;;;;;3.42;2.85;;;29.40;54.00;;;;;;5054529;28;20532;-83
2023/07/20 00:24:19;;;;;;;4.57;3.60;;;29.20;54.00;;;;;;5055173;28;20037;-83
2023/07/20 00:26:45;;;;;;;4.05;3.03;;;29.20;54.10;;;;;;5053692;28;20111;-83
2023/07/20 00:29:12;;;;;;;3.53;3.22;;;29.10;54.10;;;;;;5053698;28;20397;-83
2023/07/20 00:31:40;;;;;;;5.43;3.50;;;29.30;54.00;;;;;;5054543;28;20101;-83
2023/07/20 00:34:06;;;;;;;5.00;3.35;;;29.30;54.10;;;;;;5055224;28;20108;-81
2023/07/20 00:36:33;;;;;;;3.35;3.05;;;29.30;54.10;;;;;;5054225;28;20799;-83
2023/07/20 00:39:02;;;;;;;3.53;3.22;;;29.30;54.10;;;;;;5055444;28;20056;-82
2023/07/20 00:41:29;;;;;;;3.67;3.10;;;29.20;54.10;;;;;;5055783;28;20529;-83
2023/07/20 00:43:59;;;;;;;9.15;2.58;;;29.20;54.10;;;;;;5054545;28;20033;-83
2023/07/20 00:46:25;;;;;;;3.05;2.70;;;29.30;54.10;;;;;;5056234;28;20036;-82
2023/07/20 00:48:52;;;;;;;4.00;3.30;;;29.30;54.10;;;;;;5055417;28;20094;-82
2023/07/20 00:51:19;;;;;;;3.35;3.05;;;29.20;54.00;;;;;;5054861;28;20025;-84
2023/07/20 00:53:46;;;;;;;3.17;2.80;;;29.20;54.10;;;;;;5054561;28;20477;-82
2023/07/20 00:56:12;;;;;;;4.78;2.58;;;29.30;54.20;;;;;;5052270;28;20116;-82
2023/07/20 00:58:38;;;;;;;3.25;2.78;;;29.30;54.10;;;;;;5052642;28;20116;-83
2023/07/20 01:01:04;;;;;;;5.25;3.90;;;29.30;54.10;;;;;;5052604;28;20021;-84
2023/07/20 01:03:30;;;;;;;4.28;3.10;;;29.30;54.10;;;;;;5052801;28;20044;-84
2023/07/20 01:06:17;;;;;;;6.32;3.42;;;29.30;54.10;;;;;;5052230;28;20110;-84
2023/07/20 01:09:07;;;;;;;4.10;3.10;;;29.30;54.00;;;;;;5050868;28;20035;-85
2023/07/20 01:11:38;;;;;;;5.82;3.35;;;29.20;54.10;;;;;;5034735;28;20403;-84
2023/07/20 01:14:05;;;;;;;3.95;2.70;;;29.30;54.10;;;;;;5052480;28;20503;-84
2023/07/20 01:16:32;;;;;;;4.00;3.05;;;29.20;54.10;;;;;;5052603;28;20024;-83
2023/07/20 01:18:58;;;;;;;3.80;3.28;;;29.30;54.10;;;;;;5051434;28;20033;-84
2023/07/20 01:21:56;;;;;;;3.13;2.92;;;29.30;54.10;;;;;;5050910;28;20029;-83
2023/07/20 01:25:00;;;;;;;5.10;2.70;;;29.20;54.20;;;;;;5013750;28;20045;-84
2023/07/20 01:27:37;;;;;;;4.13;3.22;;;29.10;54.30;;;;;;4990308;28;20058;-84
2023/07/20 01:30:13;;;;;;;3.10;2.88;;;29.10;54.40;;;;;;4990721;28;20536;-84
2023/07/20 01:32:42;;;;;;;3.88;3.20;;;29.10;54.40;;;;;;4958152;28;20882;-84
2023/07/20 01:35:14;;;;;;;3.95;3.03;;;29.00;54.40;;;;;;4974733;28;20060;-84
2023/07/20 01:37:45;;;;;;;5.15;3.63;;;29.20;54.50;;;;;;4974019;28;20457;-83
2023/07/20 01:40:14;;;;;;;3.50;3.20;;;29.00;54.50;;;;;;4990608;28;20046;-83
2023/07/20 01:42:46;;;;;;;4.70;3.47;;;28.90;54.00;;;;;;4971182;28;20050;-84
2023/07/20 01:45:12;;;;;;;3.88;3.05;;;29.00;54.60;;;;;;4971218;28;20156;-84
2023/07/20 01:47:38;;;;;;;4.25;3.28;;;29.00;54.60;;;;;;4970836;28;20054;-83
2023/07/20 01:50:04;;;;;;;6.95;3.42;;;28.90;54.10;;;;;;4971733;28;20046;-84
2023/07/20 01:52:30;;;;;;;3.13;2.83;;;29.00;54.70;;;;;;4955918;28;20059;-85
2023/07/20 01:54:57;;;;;;;3.40;2.92;;;29.00;54.70;;;;;;4956481;28;20074;-84
2023/07/20 01:57:23;;;;;;;2.95;2.65;;;29.00;54.80;;;;;;4972351;28;20149;-84
2023/07/20 01:59:49;;;;;;;3.47;2.70;;;29.00;54.80;;;;;;4990275;28;20030;-84
2023/07/20 02:02:15;;;;;;;4.97;3.47;;;28.90;54.20;;;;;;5024345;28;20120;-84
2023/07/20 02:04:41;;;;;;;3.00;2.58;;;29.10;54.80;;;;;;5013478;28;20103;-84
2023/07/20 02:07:07;;;;;;;4.20;3.10;;;29.10;54.80;;;;;;5029569;28;20393;-84
2023/07/20 02:09:33;;;;;;;3.40;3.00;;;29.10;54.70;;;;;;5029582;28;20041;-84
2023/07/20 02:11:59;;;;;;;3.60;2.53;;;29.00;54.70;;;;;;5029461;28;20037;-84
2023/07/20 02:14:26;;;;;;;2.78;2.58;;;29.00;54.70;;;;;;5029284;28;20048;-84
2023/07/20 02:16:52;;;;;;;4.93;3.25;;;29.10;54.70;;;;;;5029034;28;20072;-83
2023/07/20 02:19:20;;;;;;;3.25;2.95;;;29.10;54.70;;;;;;5022263;28;20377;-84
2023/07/20 02:21:46;;;;;;;5.15;3.42;;;29.10;54.70;;;;;;5056463;28;20051;-84
2023/07/20 02:24:13;;;;;;;3.47;2.70;;;29.20;54.70;;;;;;5073473;28;20135;-83
2023/07/20 02:26:39;;;;;;;3.15;2.45;;;29.20;54.70;;;;;;5073067;28;20116;-84
2023/07/20 02:29:05;;;;;;;3.33;2.53;;;29.20;54.60;;;;;;5073215;28;20056;-84
2023/07/20 02:31:31;;;;;;;4.68;2.90;;;29.10;54.60;;;;;;5056357;28;20040;-84
2023/07/20 02:33:57;;;;;;;6.63;3.28;;;29.10;54.60;;;;;;5056570;28;20028;-84
2023/07/20 02:36:23;;;;;;;3.33;3.03;;;29.30;54.60;;;;;;5073208;28;20446;-84
2023/07/20 02:38:50;;;;;;;4.15;2.67;;;29.30;54.60;;;;;;5056414;28;20037;-84
2023/07/20 02:41:16;;;;;;;3.78;2.97;;;29.20;54.50;;;;;;5072962;28;20123;-83
2023/07/20 02:43:42;;;;;;;3.17;2.78;;;29.30;54.60;;;;;;5072868;28;20036;-84
2023/07/20 02:46:08;;;;;;;3.95;3.17;;;29.30;54.50;;;;;;5072825;28;20052;-83
2023/07/20 02:48:34;;;;;;;3.70;3.05;;;29.30;54.50;;;;;;5072777;28;20094;-83
2023/07/20 02:51:00;;;;;;;4.65;3.00;;;29.40;54.50;;;;;;5056011;28;20582;-83
2023/07/20 02:53:26;;;;;;;4.20;3.50;;;29.40;54.50;;;;;;5069840;28;20045;-83
2023/07/20 02:55:53;;;;;;;3.00;2.50;;;29.30;54.50;;;;;;5055053;28;20037;-84
2023/07/20 02:58:19;;;;;;;3.25;2.40;;;29.30;54.40;;;;;;5053930;28;20389;-84
2023/07/20 03:00:45;;;;;;;4.10;3.00;;;29.30;54.40;;;;;;5054950;28;20041;-83
2023/07/20 03:03:11;;;;;;;4.78;2.75;;;29.40;54.40;;;;;;5053884;28;20036;-84
2023/07/20 03:05:40;;;;;;;3.08;2.40;;;29.30;54.40;;;;;;5054766;28;20029;-83
2023/07/20 03:08:06;;;;;;;4.00;3.20;;;29.40;54.40;;;;;;5053607;28;20048;-84
2023/07/20 03:10:32;;;;;;;3.72;3.05;;;29.40;54.40;;;;;;5054423;28;20040;-84
2023/07/20 03:12:59;;;;;;;3.42;2.92;;;29.40;54.40;;;;;;5053832;28;20086;-85
2023/07/20 03:15:25;;;;;;;5.88;3.30;;;29.40;54.40;;;;;;5054743;28;20029;-84
2023/07/20 03:17:51;;;;;;;3.45;3.03;;;29.40;54.30;;;;;;5053653;28;20435;-84
2023/07/20 03:20:18;;;;;;;6.65;3.00;;;29.40;54.20;;;;;;5053170;28;20057;-83
2023/07/20 03:22:44;;;;;;;3.58;2.95;;;29.40;54.20;;;;;;5036845;28;20440;-84
2023/07/20 03:25:10;;;;;;;3.60;2.88;;;29.30;54.20;;;;;;5036393;28;20086;-84
2023/07/20 03:27:36;;;;;;;4.35;2.88;;;29.40;54.20;;;;;;5036966;28;20362;-84
2023/07/20 03:30:02;;;;;;;3.65;2.65;;;29.60;54.20;;;;;;5052211;28;20108;-84
2023/07/20 03:32:29;;;;;;;2.90;2.50;;;29.40;54.20;;;;;;5054347;28;20035;-85
2023/07/20 03:34:55;;;;;;;3.97;3.05;;;29.50;54.20;;;;;;5053471;28;20064;-84
2023/07/20 03:37:21;;;;;;;3.05;2.75;;;29.30;54.20;;;;;;5052915;28;20078;-84
2023/07/20 03:39:47;;;;;;;3.28;2.60;;;29.40;54.20;;;;;;5036957;28;20044;-85
2023/07/20 03:42:13;;;;;;;3.70;2.80;;;29.40;54.10;;;;;;5052873;28;20392;-84
2023/07/20 03:44:39;;;;;;;2.70;2.50;;;29.40;54.10;;;;;;5053918;28;20132;-84
2023/07/20 03:47:07;;;;;;;3.40;3.05;;;29.40;54.20;;;;;;5052906;28;20079;-84
2023/07/20 03:49:33;;;;;;;5.28;3.05;;;29.50;54.20;;;;;;5052948;28;20041;-86
2023/07/20 03:52:00;;;;;;;4.75;3.08;;;29.30;54.20;;;;;;5054029;28;20449;-87
2023/07/20 03:54:26;;;;;;;8.57;4.05;;;29.40;54.20;;;;;;5052678;28;20068;-86
2023/07/20 03:56:52;;;;;;;3.50;2.58;;;29.40;54.20;;;;;;5054104;28;20069;-83
2023/07/20 03:59:18;;;;;;;4.57;2.75;;;29.30;54.00;;;;;;5052539;28;20036;-82
2023/07/20 04:01:44;;;;;;;3.67;3.13;;;29.30;54.00;;;;;;5053691;28;20033;-81
2023/07/20 04:04:10;;;;;;;4.20;3.38;;;29.50;54.00;;;;;;5036162;28;20071;-80
2023/07/20 04:06:36;;;;;;;7.10;3.22;;;29.30;53.60;;;;;;5052294;28;20044;-81
2023/07/20 04:09:04;;;;;;;4.80;3.55;;;29.40;53.20;;;;;;5053945;28;20514;-81
2023/07/20 04:11:31;;;;;;;3.35;3.05;;;29.40;52.90;;;;;;5035998;28;20037;-80
2023/07/20 04:13:57;;;;;;;6.18;3.70;;;29.40;52.60;;;;;;5052310;28;20479;-78
2023/07/20 04:16:23;;;;;;;7.82;3.80;;;29.20;52.30;;;;;;5051507;28;20029;-78
2023/07/20 04:18:49;;;;;;;5.53;3.72;;;29.30;53.40;;;;;;5051808;28;20108;-77
2023/07/20 04:21:15;;;;;;;9.10;4.65;;;29.80;55.80;;;;;;5056186;28;20029;-81
2023/07/20 04:23:41;;;;;;;7.10;5.45;;;30.10;53.80;;;;;;5053941;28;20047;-77
2023/07/20 04:26:07;;;;;;;7.13;4.63;;;30.10;53.50;;;;;;5051763;28;20036;-78
2023/07/20 04:28:33;;;;;;;7.55;4.43;;;29.90;51.80;;;;;;5052992;28;20036;-79
2023/07/20 04:31:13;;;;;;;5.38;3.90;;;29.70;52.10;;;;;;5035180;28;20033;-79
2023/07/20 04:33:40;;;;;;;6.38;3.78;;;29.80;52.10;;;;;;5052710;28;20389;-77
2023/07/20 04:36:07;;;;;;;5.75;4.38;;;29.60;52.20;;;;;;5051502;28;20040;-78
2023/07/20 04:38:35;;;;;;;5.20;3.10;;;29.60;52.70;;;;;;5051585;28;20033;-78
2023/07/20 04:41:15;;;;;;;3.75;3.15;;;29.60;53.10;;;;;;5051155;28;20040;-77
2023/07/20 04:43:44;;;;;;;5.75;3.20;;;29.60;53.10;;;;;;5033178;28;20694;-77
2023/07/20 04:46:12;;;;;;;6.05;4.28;;;29.60;53.40;;;;;;5032894;28;20060;-77
2023/07/20 04:48:40;;;;;;;6.88;3.70;;;29.60;53.70;;;;;;5033586;28;20041;-78
2023/07/20 04:51:06;;;;;;;3.20;2.83;;;29.60;53.90;;;;;;5017230;28;20033;-78
2023/07/20 04:53:33;;;;;;;5.07;3.75;;;29.50;54.00;;;;;;5033476;28;20044;-78
2023/07/20 04:55:59;;;;;;;3.42;3.10;;;29.60;54.10;;;;;;5050391;28;20045;-77
2023/07/20 04:58:25;;;;;;;4.28;3.55;;;29.70;54.20;;;;;;5033733;28;20393;-77
2023/07/20 05:00:53;;;;;;;5.97;3.45;;;29.70;53.90;;;;;;5033962;28;20040;-77
2023/07/20 05:03:20;;;;;;;3.95;3.40;;;29.50;53.00;;;;;;5033468;28;20120;-77
2023/07/20 05:05:49;;;;;;;6.40;3.80;;;29.60;52.50;;;;;;5050302;28;20496;-77
2023/07/20 05:08:16;;;;;;;4.72;3.25;;;29.80;52.20;;;;;;5049795;28;20041;-76
2023/07/20 05:10:42;;;;;;;4.78;3.65;;;29.60;52.00;;;;;;5017282;28;20071;-77
2023/07/20 05:13:08;;;;;;;5.45;4.10;;;29.80;52.10;;;;;;5033229;28;20044;-77
2023/07/20 05:15:34;;;;;;;5.18;3.65;;;29.70;52.40;;;;;;5049739;28;20115;-76
2023/07/20 05:18:02;;;;;;;5.07;4.22;;;29.70;52.60;;;;;;5033173;28;20040;-78
2023/07/20 05:20:28;;;;;;;6.22;3.20;;;29.80;53.00;;;;;;5034779;28;20045;-75
2023/07/20 05:22:54;;;;;;;3.83;3.13;;;29.60;53.50;;;;;;5050573;28;20037;-77
2023/07/20 05:25:22;;;;;;;5.68;3.92;;;29.70;53.40;;;;;;5052062;28;20034;-74
2023/07/20 05:27:49;;;;;;;4.75;3.45;;;29.50;53.90;;;;;;5051791;28;20047;-78
2023/07/20 05:30:15;;;;;;;4.80;3.78;;;29.60;53.90;;;;;;5051620;28;20028;-74
2023/07/20 05:32:41;;;;;;;5.68;4.28;;;29.60;54.30;;;;;;5051595;28;20041;-75
2023/07/20 05:35:08;;;;;;;4.20;3.78;;;29.60;54.50;;;;;;5051818;28;20052;-76
2023/07/20 05:37:34;;;;;;;4.88;3.47;;;29.50;54.40;;;;;;5051470;28;20043;-75
2023/07/20 05:40:00;;;;;;;5.35;4.65;;;29.50;54.10;;;;;;5051666;28;20029;-75
2023/07/20 05:42:26;;;;;;;7.32;3.85;;;29.50;54.00;;;;;;5051478;28;20044;-76
2023/07/20 05:44:53;;;;;;;6.32;3.80;;;29.50;53.90;;;;;;5051415;28;20048;-75
2023/07/20 05:47:19;;;;;;;5.18;3.88;;;29.50;54.50;;;;;;5051404;28;20059;-75
2023/07/20 05:49:45;;;;;;;4.32;3.75;;;29.70;53.70;;;;;;5051514;28;20392;-75
2023/07/20 05:52:11;;;;;;;7.15;4.25;;;29.70;53.70;;;;;;5050152;28;20102;-75
2023/07/20 05:54:37;;;;;;;4.63;4.13;;;29.60;54.00;;;;;;5051129;28;20504;-74
2023/07/20 05:57:04;;;;;;;6.63;3.50;;;29.70;53.40;;;;;;5051146;28;20346;-74
2023/07/20 05:59:30;;;;;;;4.60;3.78;;;29.60;52.80;;;;;;5051312;28;20033;-73
2023/07/20 06:01:56;;;;;;;5.40;3.20;;;29.60;51.80;;;;;;5051267;28;20048;-76
2023/07/20 06:04:22;;;;;;;5.32;3.45;;;29.60;51.70;;;;;;5051385;28;20029;-74
2023/07/20 06:06:49;;;;;;;6.25;3.65;;;29.50;51.40;;;;;;5051150;28;20083;-74
2023/07/20 06:09:15;;;;;;;6.97;3.85;;;29.30;51.80;;;;;;5051168;28;20025;-75
2023/07/20 06:11:41;;;;;;;5.68;3.80;;;29.40;53.10;;;;;;5050187;28;20385;-72
2023/07/20 06:14:07;;;;;;;6.50;4.97;;;29.40;52.20;;;;;;5050200;28;20025;-73
2023/07/20 06:16:33;;;;;;;4.32;3.78;;;29.40;52.60;;;;;;5050941;28;20025;-72
2023/07/20 06:19:00;;;;;;;5.10;4.13;;;29.40;52.50;;;;;;5051161;28;20056;-73
2023/07/20 06:21:26;;;;;;;7.65;5.65;;;29.40;52.30;;;;;;5051020;28;20037;-76
2023/07/20 06:23:52;;;;;;;8.25;4.53;;;29.40;54.20;;;;;;5049964;28;20449;-73
2023/07/20 06:26:19;;;;;;;6.88;4.10;;;29.50;53.00;;;;;;5050196;28;20119;-76
2023/07/20 06:28:45;;;;;;;5.03;3.50;;;29.30;52.50;;;;;;5049770;28;20123;-74
2023/07/20 06:31:11;;;;;;;6.47;3.97;;;29.20;52.30;;;;;;5033075;28;20100;-73
2023/07/20 06:33:37;;;;;;;7.05;4.22;;;29.20;53.20;;;;;;5050720;28;20033;-74
2023/07/20 06:36:04;;;;;;;6.72;4.25;;;29.20;53.90;;;;;;5050581;28;20033;-76
2023/07/20 06:38:30;;;;;;;6.40;4.25;;;29.20;54.30;;;;;;5050914;28;20025;-75
2023/07/20 06:40:56;;;;;;;5.15;3.92;;;29.20;55.20;;;;;;5049422;28;20033;-76
2023/07/20 06:43:22;;;;;;;6.95;4.28;;;29.40;54.60;;;;;;5050591;28;20104;-77
2023/07/20 06:45:54;;;;;;;8.82;3.63;;;29.40;54.00;;;;;;5050608;28;20098;-75
2023/07/20 06:48:21;;;;;;;;;;;29.40;54.10;;;;;;5051184;28;20044;-76
2023/07/20 06:50:47;;;;;;;6.38;3.83;;;29.40;55.00;;;;;;5050684;28;20012;-76
2023/07/20 06:53:13;;;;;;;5.43;3.70;;;29.30;53.70;;;;;;5050766;28;20053;-79
2023/07/20 06:55:39;;;;;;;6.57;3.90;;;29.40;53.90;;;;;;5050733;28;20076;-78
2023/07/20 06:58:05;;;;;;;4.47;3.75;;;29.30;53.30;;;;;;5049611;28;20115;-77
2023/07/20 07:00:31;;;;;;;4.78;3.65;;;29.30;53.70;;;;;;5050992;28;20163;-78
2023/07/20 07:02:57;;;;;;;4.90;3.92;;;29.30;53.30;;;;;;5050877;28;20041;-75
2023/07/20 07:05:23;;;;;;;3.95;3.58;;;29.40;53.20;;;;;;5051554;28;20021;-81
2023/07/20 07:07:49;;;;;;;4.75;4.32;;;29.40;53.20;;;;;;5054656;28;20054;-80
2023/07/20 07:10:15;;;;;;;4.25;3.40;;;29.40;53.60;;;;;;5054517;28;20044;-81
2023/07/20 07:12:41;;;;;;;5.68;3.50;;;29.50;53.60;;;;;;5054474;28;20040;-78
2023/07/20 07:15:07;;;;;;;4.53;3.70;;;29.50;54.10;;;;;;5053046;28;20033;-83
2023/07/20 07:17:35;;;;;;;6.10;3.72;;;29.50;54.40;;;;;;5056272;28;20028;-85
2023/07/20 07:20:01;;;;;;;5.32;4.28;;;29.30;54.00;;;;;;5035075;28;20045;-80
2023/07/20 07:22:27;;;;;;;4.18;3.55;;;29.40;53.30;;;;;;5023445;28;20050;-83
2023/07/20 07:24:53;;;;;;;6.88;4.05;;;29.40;53.70;;;;;;5015497;28;20521;-80
2023/07/20 07:27:19;;;;;;;4.65;4.00;;;29.30;53.40;;;;;;5011999;28;20045;-77
2023/07/20 07:29:46;;;;;;;4.18;3.78;;;29.40;53.90;;;;;;5011484;28;20593;-76
2023/07/20 07:32:12;;;;;;;6.53;4.18;;;29.20;54.00;;;;;;5030249;28;20053;-78
2023/07/20 07:34:39;;;;;;;4.85;3.85;;;29.10;53.60;;;;;;5031381;28;20064;-75
2023/07/20 07:37:05;;;;;;;4.65;3.65;;;29.20;53.10;;;;;;5031434;28;20056;-79
2023/07/20 07:39:31;;;;;;;4.03;3.63;;;29.20;52.90;;;;;;5031445;28;20033;-77
2023/07/20 07:41:58;;;;;;;4.35;3.53;;;29.30;52.60;;;;;;5030979;28;20063;-77
2023/07/20 07:44:24;;;;;;;6.80;4.15;;;29.20;52.60;;;;;;5014529;28;20131;-77
2023/07/20 07:46:50;;;;;;;3.83;3.42;;;29.30;52.50;;;;;;5031032;28;20655;-73
2023/07/20 07:49:18;;;;;;;3.88;3.58;;;29.10;52.50;;;;;;5028452;28;20080;-85
2023/07/20 07:51:44;;;;;;;4.95;3.47;;;29.20;53.20;;;;;;5031467;28;20100;-79
2023/07/20 07:54:10;;;;;;;4.72;3.80;;;29.20;53.50;;;;;;5015078;28;20037;-80
2023/07/20 07:56:36;;;;;;;4.30;3.75;;;29.10;53.50;;;;;;5035103;28;20211;-79
2023/07/20 07:59:02;;;;;;;4.20;3.60;;;29.30;53.30;;;;;;5052803;28;20442;-82
2023/07/20 08:01:29;;;;;;;4.25;3.35;;;29.20;53.30;;;;;;5052461;28;20049;-81
2023/07/20 08:03:56;;;;;;;5.00;3.83;;;29.30;53.30;;;;;;5053072;28;20485;-80
2023/07/20 08:06:23;;;;;;;6.47;4.07;;;29.30;53.20;;;;;;5053198;28;20103;-79
2023/07/20 08:08:50;;;;;;;3.83;3.25;;;29.40;53.20;;;;;;5053177;28;20044;-79
2023/07/20 08:11:17;;;;;;;4.57;3.90;;;29.30;53.20;;;;;;5053338;28;20036;-80
2023/07/20 08:13:43;;;;;;;7.55;4.13;;;29.40;53.10;;;;;;5053135;28;20051;-81
2023/07/20 08:16:09;;;;;;;5.88;3.40;;;29.20;53.10;;;;;;5052593;28;20476;-81
2023/07/20 08:18:35;;;;;;;4.10;3.70;;;29.40;53.20;;;;;;5053437;28;20103;-80
2023/07/20 08:21:01;;;;;;;4.45;3.38;;;29.30;53.30;;;;;;5054036;28;20029;-81
2023/07/20 08:23:27;;;;;;;4.60;3.53;;;29.40;53.40;;;;;;5030481;28;20073;-81
2023/07/20 08:25:54;;;;;;;3.97;3.28;;;29.40;53.40;;;;;;5028891;28;20057;-80
2023/07/20 08:28:20;;;;;;;4.32;3.55;;;29.40;53.30;;;;;;5028988;28;20152;-76
2023/07/20 08:30:48;;;;;;;9.27;3.90;;;29.40;54.80;;;;;;5030569;28;20069;-76
2023/07/20 08:33:15;;;;;;;11.00;5.50;;;29.30;55.00;;;;;;5030476;28;20136;-76
2023/07/20 08:35:42;;;;;;;4.85;4.30;;;29.40;58.40;;;;;;5030872;28;20041;-77
2023/07/20 08:38:08;;;;;;;6.85;3.72;;;29.50;58.40;;;;;;5030467;28;20064;-80
2023/07/20 08:40:43;;;;;;;7.05;4.38;;;29.50;55.20;;;;;;5030281;28;20422;-76
2023/07/20 08:43:11;;;;;;;7.45;4.43;;;29.50;55.60;;;;;;5030029;28;20490;-73
2023/07/20 08:45:40;;;;;;;4.82;3.65;;;29.40;54.30;;;;;;5029922;28;20140;-80
2023/07/20 08:48:08;;;;;;;7.85;3.83;;;29.50;53.70;;;;;;5030082;28;20068;-80
2023/07/20 08:50:35;;;;;;;8.68;4.22;;;29.60;53.90;;;;;;5030141;28;20037;-81
2023/07/20 08:53:02;;;;;;;7.65;3.70;;;29.50;53.80;;;;;;5030166;28;20204;-80
2023/07/20 08:55:29;;;;;;;5.78;3.50;;;29.60;54.50;;;;;;5069184;28;20412;-82
2023/07/20 08:57:56;;;;;;;6.97;3.70;;;29.60;53.50;;;;;;5073444;28;20032;-81
2023/07/20 09:00:24;;;;;;;3.60;2.78;;;29.60;53.40;;;;;;5073489;28;20039;-82
2023/07/20 09:02:52;;;;;;;4.28;3.42;;;29.80;53.40;;;;;;5072455;28;20079;-74
2023/07/20 09:05:19;;;;;;;4.95;3.70;;;29.70;53.30;;;;;;5072613;28;20025;-77
2023/07/20 09:07:46;;;;;;;16.42;3.53;;;29.70;53.30;;;;;;5072060;28;20475;-79
2023/07/20 09:10:12;;;;;;;8.52;3.40;;;29.70;53.40;;;;;;5032275;28;20512;-83
2023/07/20 09:12:40;;;;;;;6.07;2.63;;;29.70;53.50;;;;;;5032603;28;20034;-80
2023/07/20 09:15:07;;;;;;;4.03;2.90;;;29.70;53.60;;;;;;5032805;28;20035;-81
2023/07/20 09:17:33;;;;;;;5.35;2.83;;;29.70;55.10;;;;;;5032085;28;20586;-80
2023/07/20 09:20:07;;;;;;;5.90;2.92;;;29.70;54.10;;;;;;5032178;28;20026;-82
2023/07/20 09:22:34;;;;;;;8.50;3.47;;;29.70;54.00;;;;;;5056158;28;20078;-82
2023/07/20 09:25:00;;;;;;;5.57;3.72;;;29.70;54.00;;;;;;5071697;28;20028;-79
2023/07/20 09:27:40;;;;;;;7.90;3.47;;;29.80;53.80;;;;;;5071328;28;20488;-77
2023/07/20 09:30:08;;;;;;;5.68;3.85;;;29.70;53.60;;;;;;5071410;28;20115;-80
2023/07/20 09:32:44;;;;;;;5.13;3.20;;;30.00;53.90;;;;;;5069515;28;20035;-82
2023/07/20 09:35:21;;;;;;;4.50;3.72;;;30.00;53.70;;;;;;5070894;28;20036;-79
2023/07/20 09:37:52;;;;;;;4.88;3.10;;;29.90;53.40;;;;;;5071267;28;20400;-79
2023/07/20 09:40:19;;;;;;;3.63;3.30;;;29.90;53.40;;;;;;5071099;28;20081;-78
2023/07/20 09:42:45;;;;;;;4.30;3.53;;;29.80;53.70;;;;;;5069627;28;20035;-79
2023/07/20 09:45:12;;;;;;;4.75;3.58;;;29.80;53.80;;;;;;5069834;28;20059;-78
2023/07/20 09:47:40;;;;;;;3.83;3.30;;;29.90;55.40;;;;;;5071296;28;20499;-80
2023/07/20 09:50:10;;;;;;;4.05;3.13;;;30.00;56.80;;;;;;5071392;28;20044;-78
2023/07/20 09:52:41;;;;;;;7.53;3.97;;;30.20;57.00;;;;;;5071083;28;20070;-80
2023/07/20 09:55:13;;;;;;;4.82;3.80;;;30.30;55.40;;;;;;5069844;28;20055;-78
2023/07/20 09:57:39;;;;;;;6.57;4.30;;;30.20;54.90;;;;;;5071528;28;20060;-78
2023/07/20 10:00:16;;;;;;;4.95;4.15;;;30.20;57.40;;;;;;5071239;28;20037;-78
2023/07/20 10:02:44;;;;;;;7.72;4.35;;;30.40;57.80;;;;;;5071399;28;20059;-81
2023/07/20 10:05:14;;;;;;;7.35;4.43;;;30.20;57.80;;;;;;5070845;28;20028;-77
2023/07/20 10:07:52;;;;;;;4.20;3.63;;;30.10;57.20;;;;;;5071382;28;20043;-79
2023/07/20 10:10:19;;;;;;;3.85;3.45;;;30.20;56.40;;;;;;5069890;28;20454;-80
2023/07/20 10:12:48;;;;;;;4.85;4.25;;;30.20;58.10;;;;;;5071097;28;20028;-77
2023/07/20 10:15:36;;;;;;;7.55;4.28;;;30.50;58.80;;;;;;5071475;28;20032;-77
2023/07/20 10:18:23;;;;;;;13.63;4.65;;;30.80;61.30;;;;;;5074825;28;20046;-78
2023/07/20 10:20:51;;;;;;;7.72;3.72;;;31.00;59.70;;;;;;5073428;28;20492;-82
2023/07/20 10:23:17;;;;;;;5.32;3.55;;;30.90;56.90;;;;;;5071924;28;20032;-80
2023/07/20 10:25:45;;;;;;;5.97;3.90;;;31.00;55.40;;;;;;5053190;28;20040;-81
2023/07/20 10:28:11;;;;;;;5.90;3.55;;;31.00;54.60;;;;;;5070039;28;20044;-81
2023/07/20 10:30:38;;;;;;;12.05;3.88;;;31.00;54.70;;;;;;5070304;28;20036;-80
2023/07/20 10:33:05;;;;;;;5.97;4.80;;;30.90;54.50;;;;;;5066403;28;20392;-81
2023/07/20 10:35:54;;;;;;;6.00;4.43;;;30.90;54.70;;;;;;5050639;28;20033;-77
2023/07/20 10:38:38;;;;;;;7.03;4.18;;;31.00;57.00;;;;;;5050647;28;20075;-77
2023/07/20 10:41:04;;;;;;;7.35;4.47;;;31.50;56.80;;;;;;5054614;28;20117;-87
2023/07/20 10:43:30;;;;;;;6.35;3.28;;;31.80;54.50;;;;;;5034722;28;20038;-81
2023/07/20 10:45:57;;;;;;;8.30;4.20;;;31.70;51.40;;;;;;5034542;28;20045;-82
2023/07/20 10:48:25;;;;;;;4.85;3.75;;;31.50;48.90;;;;;;5034726;28;20041;-81
2023/07/20 10:51:11;;;;;;;4.85;3.75;;;31.50;48.80;;;;;;5044744;28;20396;-77
2023/07/20 10:53:38;;;;;;;4.97;3.30;;;31.50;47.10;;;;;;5051971;28;20037;-81
2023/07/20 10:56:23;;;;;;;4.50;3.28;;;31.30;46.40;;;;;;5052436;28;20037;-80
2023/07/20 10:58:49;;;;;;;4.22;2.80;;;31.30;46.70;;;;;;5052139;28;20172;-82
2023/07/20 11:01:18;;;;;;;6.38;2.72;;;31.40;45.20;;;;;;5052587;28;20471;-82
2023/07/20 11:03:50;;;;;;;4.43;3.05;;;31.30;45.10;;;;;;5051769;28;20079;-79
2023/07/20 11:06:28;;;;;;;7.75;3.17;;;31.40;44.40;;;;;;5051744;28;20041;-82
2023/07/20 11:09:16;;;;;;;4.35;2.60;;;31.30;44.10;;;;;;5051528;28;20147;-82
2023/07/20 11:11:47;;;;;;;7.05;3.17;;;31.40;42.90;;;;;;5051913;28;20041;-78
2023/07/20 11:14:24;;;;;;;2.63;2.30;;;31.20;42.80;;;;;;5051550;28;20045;-79
2023/07/20 11:16:52;;;;;;;3.28;2.70;;;31.10;42.60;;;;;;5034970;28;20040;-77
2023/07/20 11:19:25;;;;;;;4.70;2.65;;;31.20;42.40;;;;;;5051446;28;20037;-79
2023/07/20 11:21:53;;;;;;;5.40;2.83;;;31.10;42.20;;;;;;5041466;28;20028;-78
2023/07/20 11:24:19;;;;;;;7.68;2.83;;;31.10;40.60;;;;;;5071659;28;20033;-79
2023/07/20 11:26:50;;;;;;;3.03;2.58;;;31.10;40.50;;;;;;5073852;28;20421;-80
2023/07/20 11:29:18;;;;;;;4.22;3.10;;;31.00;39.50;;;;;;5073878;28;20115;-78
2023/07/20 11:31:45;;;;;;;4.20;2.30;;;31.00;39.50;;;;;;5072466;28;20518;-81
2023/07/20 11:34:16;;;;;;;2.78;2.15;;;30.70;39.20;;;;;;5071466;28;20037;-80
2023/07/20 11:36:45;;;;;;;4.17;2.97;;;30.80;38.80;;;;;;5073545;28;20111;-82
2023/07/20 11:39:15;;;;;;;4.55;2.72;;;30.70;38.80;;;;;;5073478;28;21067;-79
2023/07/20 11:41:55;;;;;;;2.25;2.03;;;30.60;38.80;;;;;;5066217;28;20342;-79
2023/07/20 11:44:29;;;;;;;2.60;2.40;;;30.60;38.70;;;;;;5053015;28;20045;-79
2023/07/20 11:47:05;;;;;;;3.58;2.58;;;30.50;38.80;;;;;;5053449;28;20045;-80
2023/07/20 11:49:39;;;;;;;2.47;2.17;;;30.40;38.20;;;;;;5053497;28;20037;-80
2023/07/20 11:52:08;;;;;;;2.92;2.60;;;30.30;38.80;;;;;;5053191;28;20397;-84
2023/07/20 11:54:35;;;;;;;4.85;3.13;;;30.40;38.70;;;;;;5053060;28;20544;-80
2023/07/20 11:57:02;;;;;;;2.97;2.40;;;30.40;38.50;;;;;;5053231;28;20033;-79
2023/07/20 11:59:28;;;;;;;3.45;2.20;;;30.30;38.90;;;;;;5053563;28;20066;-80
2023/07/20 12:01:54;;;;;;;5.72;2.40;;;30.40;38.40;;;;;;5053661;28;20503;-83
2023/07/20 12:04:23;;;;;;;2.40;2.05;;;30.30;38.30;;;;;;5035456;28;20048;-78
2023/07/20 12:06:49;;;;;;;4.80;2.83;;;30.20;38.50;;;;;;5052212;28;20041;-78
2023/07/20 12:09:17;;;;;;;2.53;2.30;;;30.30;38.90;;;;;;5053282;28;20037;-79
2023/07/20 12:11:45;;;;;;;4.00;2.10;;;30.30;39.10;;;;;;5053229;28;20534;-80
2023/07/20 12:14:11;;;;;;;3.33;2.67;;;30.40;39.40;;;;;;5033163;28;20036;-78
2023/07/20 12:16:38;;;;;;;3.83;2.63;;;30.20;40.00;;;;;;5032955;28;20051;-78
2023/07/20 12:19:09;;;;;;;6.53;2.72;;;30.30;40.30;;;;;;5048596;28;20108;-79
2023/07/20 12:21:37;;;;;;;3.72;3.08;;;30.20;41.90;;;;;;5041029;28;20479;-78
2023/07/20 12:24:04;;;;;;;3.53;2.85;;;30.40;42.90;;;;;;5072705;28;20056;-76
2023/07/20 12:26:31;;;;;;;4.82;3.05;;;30.40;42.80;;;;;;5072710;28;20198;-76
2023/07/20 12:28:57;;;;;;;4.70;2.70;;;30.10;43.20;;;;;;5072738;28;20519;-78
2023/07/20 12:31:24;;;;;;;4.32;2.38;;;30.10;43.00;;;;;;5071497;28;20094;-79
2023/07/20 12:33:52;;;;;;;8.00;2.15;;;30.10;43.20;;;;;;5072505;28;20017;-78
2023/07/20 12:36:18;;;;;;;3.22;2.28;;;30.10;43.50;;;;;;5072506;28;20036;-78
2023/07/20 12:38:45;;;;;;;4.63;2.70;;;30.10;43.60;;;;;;5072423;28;20060;-79
2023/07/20 12:41:15;;;;;;;3.13;2.10;;;30.20;43.90;;;;;;5069520;28;20044;-78
2023/07/20 12:43:42;;;;;;;3.25;2.55;;;30.20;44.10;;;;;;5052651;28;20025;-77
2023/07/20 12:46:09;;;;;;;4.05;2.78;;;30.10;44.30;;;;;;5052331;28;20049;-79
2023/07/20 12:48:37;;;;;;;3.45;2.28;;;30.10;44.50;;;;;;5052481;28;20047;-79
2023/07/20 12:51:04;;;;;;;3.08;2.38;;;30.20;44.70;;;;;;5051128;28;20506;-78
2023/07/20 12:53:32;;;;;;;5.00;2.45;;;30.10;44.60;;;;;;5052179;28;20040;-79